createdAt,value
2022-12-01T00:00:44.324Z,51.216167
2022-12-01T00:01:44.484Z,51.216141
2022-12-01T00:02:44.416Z,51.216202
2022-12-01T00:03:44.299Z,51.216167
2022-12-01T00:04:44.303Z,51.216263
2022-12-01T00:05:44.289Z,51.216133
2022-12-01T00:06:44.299Z,51.216202
2022-12-01T00:07:44.326Z,51.216255
2022-12-01T00:08:44.265Z,51.216084
2022-12-01T00:09:44.255Z,51.216030
2022-12-01T00:10:44.246Z,51.216221
2022-12-01T00:11:45.266Z,51.216248
2022-12-01T00:12:44.237Z,51.216248
2022-12-01T00:13:44.221Z,51.216290
2022-12-01T00:14:44.240Z,51.216274
2022-12-01T00:15:44.209Z,51.216141
2022-12-01T00:16:44.250Z,51.216221
2022-12-01T00:17:44.216Z,51.216339
2022-12-01T00:18:44.184Z,51.216270
2022-12-01T00:19:44.180Z,51.216251
2022-12-01T00:20:44.181Z,51.216145
2022-12-01T00:21:44.170Z,51.216225
2022-12-01T00:22:44.177Z,51.216240
2022-12-01T00:23:44.148Z,51.216179
2022-12-01T00:24:44.149Z,51.216286
2022-12-01T00:25:44.137Z,51.216278
2022-12-01T00:26:44.134Z,51.216183
2022-12-01T00:27:44.148Z,51.216183
2022-12-01T00:28:44.121Z,51.216228
2022-12-01T00:29:44.120Z,51.216225
2022-12-01T00:30:44.109Z,51.216164
2022-12-01T00:31:44.162Z,51.216274
2022-12-01T00:32:44.117Z,51.216366
2022-12-01T00:33:44.091Z,51.216408
2022-12-01T00:34:44.076Z,51.216320
2022-12-01T00:35:44.068Z,51.216328
2022-12-01T00:36:44.068Z,51.216187
2022-12-01T00:37:44.048Z,51.216011
2022-12-01T00:38:44.063Z,51.216084
2022-12-01T00:39:44.041Z,51.216049
2022-12-01T00:40:44.029Z,51.215874
2022-12-01T00:41:44.020Z,51.215961
2022-12-01T00:42:44.009Z,51.216103
2022-12-01T00:43:44.023Z,51.216236
2022-12-01T00:44:43.997Z,51.216194
2022-12-01T00:45:44.067Z,51.216286
2022-12-01T00:46:43.990Z,51.216133
2022-12-01T00:47:43.984Z,51.216129
2022-12-01T00:48:43.985Z,51.216026
2022-12-01T00:49:43.972Z,51.216087
2022-12-01T00:50:43.962Z,51.216202
2022-12-01T00:51:44.001Z,51.216209
2022-12-01T00:52:43.948Z,51.216206
2022-12-01T00:53:43.941Z,51.216217
2022-12-01T00:54:43.942Z,51.216141
2022-12-01T00:55:43.929Z,51.216103
2022-12-01T00:56:43.941Z,51.216171
2022-12-01T00:57:43.917Z,51.216156
2022-12-01T00:58:43.896Z,51.216122
2022-12-01T00:59:43.902Z,51.215912
2022-12-01T01:00:43.893Z,51.216171
2022-12-01T01:01:43.952Z,51.216228
2022-12-01T01:02:43.973Z,51.216160
2022-12-01T01:03:43.886Z,51.216194
2022-12-01T01:04:43.858Z,51.216072
2022-12-01T01:05:43.874Z,51.216072
2022-12-01T01:06:43.853Z,51.216072
2022-12-01T01:07:43.935Z,51.216022
2022-12-01T01:08:43.839Z,51.215710
2022-12-01T01:09:43.835Z,51.215725
2022-12-01T01:10:43.822Z,51.215874
2022-12-01T01:11:43.825Z,51.215755
2022-12-01T01:12:43.816Z,51.215874
2022-12-01T01:13:43.816Z,51.216152
2022-12-01T01:14:43.796Z,51.216167
2022-12-01T01:15:43.798Z,51.216282
2022-12-01T01:16:43.907Z,51.216167
2022-12-01T01:17:43.783Z,51.216160
2022-12-01T01:18:43.819Z,51.215965
2022-12-01T01:19:43.766Z,51.216038
2022-12-01T01:20:43.747Z,51.216026
2022-12-01T01:21:43.745Z,51.216080
2022-12-01T01:22:43.760Z,51.215988
2022-12-01T01:23:43.760Z,51.216053
2022-12-01T01:24:43.749Z,51.216084
2022-12-01T01:25:43.719Z,51.216091
2022-12-01T01:26:43.724Z,51.216171
2022-12-01T01:27:43.705Z,51.216118
2022-12-01T01:28:43.706Z,51.215912
2022-12-01T01:29:43.708Z,51.216171
2022-12-01T01:30:43.720Z,51.215805
2022-12-01T01:31:44.672Z,51.216038
2022-12-01T01:32:43.677Z,51.215797
2022-12-01T01:33:43.672Z,51.216034
2022-12-01T01:34:43.675Z,51.216061
2022-12-01T01:35:43.657Z,51.216167
2022-12-01T01:36:43.652Z,51.216080
2022-12-01T01:37:43.649Z,51.216030
2022-12-01T01:38:43.641Z,51.215969
2022-12-01T01:39:43.645Z,51.215809
2022-12-01T01:40:43.624Z,51.215828
2022-12-01T01:41:43.611Z,51.215904
2022-12-01T01:42:43.620Z,51.215958
2022-12-01T01:43:43.608Z,51.216026
2022-12-01T01:44:43.612Z,51.216095
2022-12-01T01:45:43.613Z,51.216042
2022-12-01T01:46:43.600Z,51.216000
2022-12-01T01:47:43.573Z,51.216042
2022-12-01T01:48:43.588Z,51.216038
2022-12-01T01:49:43.560Z,51.216042
2022-12-01T01:50:43.564Z,51.216125
2022-12-01T01:51:43.548Z,51.216217
2022-12-01T01:52:43.541Z,51.216053
2022-12-01T01:53:43.535Z,51.216156
2022-12-01T01:54:43.549Z,51.215809
2022-12-01T01:55:43.544Z,51.215710
2022-12-01T01:56:43.513Z,51.215984
2022-12-01T01:57:43.500Z,51.216244
2022-12-01T01:58:43.500Z,51.216167
2022-12-01T01:59:43.493Z,51.216209
2022-12-01T02:00:43.543Z,51.216049
2022-12-01T02:01:43.514Z,51.216049
2022-12-01T02:02:43.535Z,51.216015
2022-12-01T02:03:43.456Z,51.216095
2022-12-01T02:04:43.461Z,51.216026
2022-12-01T02:05:43.456Z,51.216095
2022-12-01T02:06:43.480Z,51.216106
2022-12-01T02:07:43.469Z,51.215881
2022-12-01T02:08:43.433Z,51.215797
2022-12-01T02:09:43.419Z,51.216087
2022-12-01T02:10:43.412Z,51.216053
2022-12-01T02:11:43.439Z,51.216034
2022-12-01T02:12:43.400Z,51.216042
2022-12-01T02:13:43.401Z,51.216106
2022-12-01T02:14:43.396Z,51.216141
2022-12-01T02:15:43.380Z,51.216087
2022-12-01T02:16:43.394Z,51.216034
2022-12-01T02:17:43.397Z,51.216061
2022-12-01T02:18:43.351Z,51.216061
2022-12-01T02:19:43.352Z,51.216049
2022-12-01T02:20:43.352Z,51.215950
2022-12-01T02:21:43.335Z,51.215992
2022-12-01T02:22:43.355Z,51.216087
2022-12-01T02:23:43.328Z,51.216091
2022-12-01T02:24:43.312Z,51.216015
2022-12-01T02:25:43.309Z,51.215981
2022-12-01T02:26:43.312Z,51.216045
2022-12-01T02:27:43.291Z,51.215996
2022-12-01T02:28:43.291Z,51.216064
2022-12-01T02:29:43.301Z,51.215984
2022-12-01T02:30:43.292Z,51.216103
2022-12-01T02:31:43.272Z,51.216106
2022-12-01T02:32:43.268Z,51.216179
2022-12-01T02:33:43.251Z,51.216000
2022-12-01T02:34:43.252Z,51.216156
2022-12-01T02:35:43.243Z,51.216042
2022-12-01T02:36:43.236Z,51.216057
2022-12-01T02:37:43.231Z,51.216007
2022-12-01T02:38:43.240Z,51.216110
2022-12-01T02:39:43.219Z,51.216133
2022-12-01T02:40:43.220Z,51.216160
2022-12-01T02:41:43.213Z,51.216228
2022-12-01T02:42:43.206Z,51.216091
2022-12-01T02:43:43.205Z,51.215969
2022-12-01T02:44:43.175Z,51.216003
2022-12-01T02:45:43.232Z,51.216141
2022-12-01T02:46:43.167Z,51.216190
2022-12-01T02:47:43.165Z,51.216202
2022-12-01T02:48:43.175Z,51.216080
2022-12-01T02:49:43.159Z,51.216122
2022-12-01T02:50:43.151Z,51.216152
2022-12-01T02:51:43.135Z,51.216114
2022-12-01T02:52:43.132Z,51.216225
2022-12-01T02:53:43.135Z,51.216114
2022-12-01T02:54:43.132Z,51.216206
2022-12-01T02:55:43.112Z,51.216366
2022-12-01T02:56:43.091Z,51.216133
2022-12-01T02:57:43.099Z,51.216171
2022-12-01T02:58:43.095Z,51.216137
2022-12-01T02:59:43.079Z,51.216015
2022-12-01T03:00:43.101Z,51.215919
2022-12-01T03:01:43.138Z,51.215954
2022-12-01T03:02:43.210Z,51.216038
2022-12-01T03:03:43.063Z,51.216095
2022-12-01T03:04:43.058Z,51.216007
2022-12-01T03:05:43.040Z,51.216091
2022-12-01T03:06:43.051Z,51.216053
2022-12-01T03:07:43.064Z,51.216064
2022-12-01T03:08:43.027Z,51.216068
2022-12-01T03:09:43.014Z,51.216194
2022-12-01T03:10:43.015Z,51.216251
2022-12-01T03:11:43.026Z,51.216095
2022-12-01T03:12:42.996Z,51.215946
2022-12-01T03:13:42.987Z,51.216118
2022-12-01T03:14:42.991Z,51.216026
2022-12-01T03:15:43.037Z,51.215786
2022-12-01T03:16:42.991Z,51.215706
2022-12-01T03:17:42.958Z,51.215881
2022-12-01T03:18:42.954Z,51.215988
2022-12-01T03:19:42.958Z,51.216095
2022-12-01T03:20:42.958Z,51.216148
2022-12-01T03:21:42.941Z,51.216152
2022-12-01T03:22:42.940Z,51.216106
2022-12-01T03:23:42.922Z,51.216019
2022-12-01T03:24:42.922Z,51.216129
2022-12-01T03:25:42.919Z,51.216068
2022-12-01T03:26:42.918Z,51.215965
2022-12-01T03:28:00.557Z,51.216042
2022-12-01T03:28:44.897Z,51.216049
2022-12-01T03:29:42.893Z,51.216106
2022-12-01T03:30:42.883Z,51.216045
2022-12-01T03:31:42.933Z,51.216091
2022-12-01T03:32:42.900Z,51.216110
2022-12-01T03:33:42.854Z,51.216091
2022-12-01T03:34:42.854Z,51.216042
2022-12-01T03:35:42.862Z,51.216091
2022-12-01T03:36:42.837Z,51.216076
2022-12-01T03:37:42.824Z,51.216110
2022-12-01T03:38:42.859Z,51.216087
2022-12-01T03:39:42.821Z,51.216148
2022-12-01T03:40:42.817Z,51.216034
2022-12-01T03:41:42.822Z,51.215988
2022-12-01T03:42:42.801Z,51.216038
2022-12-01T03:43:42.809Z,51.216118
2022-12-01T03:44:42.845Z,51.216225
2022-12-01T03:45:42.786Z,51.216167
2022-12-01T03:46:42.838Z,51.216141
2022-12-01T03:47:42.784Z,51.216011
2022-12-01T03:48:42.776Z,51.216118
2022-12-01T03:49:42.781Z,51.216240
2022-12-01T03:50:42.754Z,51.216167
2022-12-01T03:51:42.750Z,51.216122
2022-12-01T03:52:42.742Z,51.216084
2022-12-01T03:53:42.746Z,51.216049
2022-12-01T03:54:42.754Z,51.216129
2022-12-01T03:55:42.778Z,51.216034
2022-12-01T03:56:42.713Z,51.215965
2022-12-01T03:57:42.744Z,51.215958
2022-12-01T03:58:42.698Z,51.216061
2022-12-01T03:59:42.757Z,51.216122
2022-12-01T04:00:42.706Z,51.216152
2022-12-01T04:01:42.712Z,51.216152
2022-12-01T04:02:42.720Z,51.216026
2022-12-01T04:03:42.668Z,51.216000
2022-12-01T04:04:42.685Z,51.216080
2022-12-01T04:05:42.658Z,51.216030
2022-12-01T04:06:42.642Z,51.216129
2022-12-01T04:07:42.651Z,51.216019
2022-12-01T04:08:42.629Z,51.215988
2022-12-01T04:09:42.644Z,51.216110
2022-12-01T04:10:42.629Z,51.216003
2022-12-01T04:11:42.597Z,51.216072
2022-12-01T04:12:42.610Z,51.216061
2022-12-01T04:13:42.590Z,51.216022
2022-12-01T04:14:42.588Z,51.216068
2022-12-01T04:15:42.605Z,51.215992
2022-12-01T04:16:42.593Z,51.215893
2022-12-01T04:17:42.565Z,51.215927
2022-12-01T04:18:42.562Z,51.216019
2022-12-01T04:19:42.556Z,51.216084
2022-12-01T04:20:42.553Z,51.216095
2022-12-01T04:21:42.598Z,51.215954
2022-12-01T04:22:42.537Z,51.215958
2022-12-01T04:23:42.533Z,51.216007
2022-12-01T04:24:42.525Z,51.216030
2022-12-01T04:25:42.521Z,51.216045
2022-12-01T04:26:42.513Z,51.216061
2022-12-01T04:27:42.513Z,51.216026
2022-12-01T04:28:42.504Z,51.216026
2022-12-01T04:29:42.493Z,51.216011
2022-12-01T04:30:42.493Z,51.216026
2022-12-01T04:31:42.512Z,51.216141
2022-12-01T04:32:42.482Z,51.216042
2022-12-01T04:33:42.473Z,51.215992
2022-12-01T04:34:42.469Z,51.216026
2022-12-01T04:35:42.457Z,51.216030
2022-12-01T04:36:42.453Z,51.216122
2022-12-01T04:37:42.450Z,51.216084
2022-12-01T04:38:42.450Z,51.216084
2022-12-01T04:39:42.429Z,51.216053
2022-12-01T04:40:42.442Z,51.216068
2022-12-01T04:41:42.419Z,51.216122
2022-12-01T04:42:42.409Z,51.216007
2022-12-01T04:43:42.407Z,51.216095
2022-12-01T04:44:42.393Z,51.216167
2022-12-01T04:45:42.397Z,51.216122
2022-12-01T04:46:42.441Z,51.216206
2022-12-01T04:47:42.377Z,51.216156
2022-12-01T04:48:42.374Z,51.215996
2022-12-01T04:49:42.358Z,51.215988
2022-12-01T04:50:42.366Z,51.216038
2022-12-01T04:51:42.351Z,51.216087
2022-12-01T04:52:42.349Z,51.215965
2022-12-01T04:53:42.328Z,51.215977
2022-12-01T04:54:42.332Z,51.216110
2022-12-01T04:55:42.329Z,51.215988
2022-12-01T04:56:42.317Z,51.216156
2022-12-01T04:57:42.322Z,51.216007
2022-12-01T04:58:42.306Z,51.216011
2022-12-01T04:59:42.303Z,51.215965
2022-12-01T05:00:42.356Z,51.215916
2022-12-01T05:01:43.372Z,51.216148
2022-12-01T05:02:42.305Z,51.216084
2022-12-01T05:03:43.277Z,51.216095
2022-12-01T05:04:42.273Z,51.216141
2022-12-01T05:05:42.261Z,51.216030
2022-12-01T05:06:42.255Z,51.215977
2022-12-01T05:07:42.395Z,51.215916
2022-12-01T05:08:42.244Z,51.215992
2022-12-01T05:09:42.235Z,51.216290
2022-12-01T05:10:42.221Z,51.216309
2022-12-01T05:11:42.213Z,51.216190
2022-12-01T05:12:42.215Z,51.216190
2022-12-01T05:13:42.229Z,51.216137
2022-12-01T05:14:42.225Z,51.215965
2022-12-01T05:15:42.189Z,51.216064
2022-12-01T05:16:43.239Z,51.216118
2022-12-01T05:17:42.185Z,51.216091
2022-12-01T05:18:42.246Z,51.216240
2022-12-01T05:19:42.177Z,51.216171
2022-12-01T05:20:42.161Z,51.216026
2022-12-01T05:21:42.149Z,51.216084
2022-12-01T05:23:04.854Z,51.216141
2022-12-01T05:23:44.141Z,51.216022
2022-12-01T05:24:42.148Z,51.216213
2022-12-01T05:25:42.114Z,51.216103
2022-12-01T05:26:42.122Z,51.216179
2022-12-01T05:27:42.113Z,51.216125
2022-12-01T05:28:42.107Z,51.216011
2022-12-01T05:29:42.111Z,51.216049
2022-12-01T05:30:42.091Z,51.216167
2022-12-01T05:31:42.140Z,51.216240
2022-12-01T05:32:42.075Z,51.216118
2022-12-01T05:33:42.068Z,51.215733
2022-12-01T05:34:42.072Z,51.215607
2022-12-01T05:35:42.082Z,51.215580
2022-12-01T05:36:42.052Z,51.215588
2022-12-01T05:37:42.041Z,51.215965
2022-12-01T05:38:42.041Z,51.216297
2022-12-01T05:39:42.040Z,51.216518
2022-12-01T05:40:42.017Z,51.216267
2022-12-01T05:41:42.025Z,51.216190
2022-12-01T05:42:42.013Z,51.216064
2022-12-01T05:43:42.008Z,51.216011
2022-12-01T05:44:42.216Z,51.215946
2022-12-01T05:45:42.054Z,51.215977
2022-12-01T05:46:41.981Z,51.216019
2022-12-01T05:47:41.980Z,51.215919
2022-12-01T05:48:41.978Z,51.215996
2022-12-01T05:49:42.004Z,51.216129
2022-12-01T05:50:41.972Z,51.216164
2022-12-01T05:51:41.949Z,51.216328
2022-12-01T05:52:41.940Z,51.216167
2022-12-01T05:53:41.960Z,51.215996
2022-12-01T05:54:41.933Z,51.215626
2022-12-01T05:55:41.949Z,51.215458
2022-12-01T05:56:41.920Z,51.215256
2022-12-01T05:57:41.910Z,51.215492
2022-12-01T05:58:41.913Z,51.215611
2022-12-01T05:59:41.896Z,51.215652
2022-12-01T06:00:45.703Z,51.215675
2022-12-01T06:01:42.942Z,51.215683
2022-12-01T06:02:41.872Z,51.215855
2022-12-01T06:03:41.921Z,51.215748
2022-12-01T06:04:41.870Z,51.215725
2022-12-01T06:05:41.865Z,51.215683
2022-12-01T06:06:41.849Z,51.215710
2022-12-01T06:07:41.897Z,51.215828
2022-12-01T06:08:41.828Z,51.215889
2022-12-01T06:09:41.848Z,51.216034
2022-12-01T06:10:41.837Z,51.216187
2022-12-01T06:11:41.814Z,51.216198
2022-12-01T06:12:41.808Z,51.215961
2022-12-01T06:13:41.809Z,51.215836
2022-12-01T06:14:41.795Z,51.216045
2022-12-01T06:15:41.841Z,51.215919
2022-12-01T06:16:41.817Z,51.215820
2022-12-01T06:17:41.780Z,51.215698
2022-12-01T06:18:41.774Z,51.215935
2022-12-01T06:19:41.745Z,51.215866
2022-12-01T06:20:41.749Z,51.216019
2022-12-01T06:21:41.738Z,51.216187
2022-12-01T06:22:41.749Z,51.216156
2022-12-01T06:23:41.720Z,51.215950
2022-12-01T06:24:41.720Z,51.215988
2022-12-01T06:25:41.710Z,51.215961
2022-12-01T06:26:41.718Z,51.216099
2022-12-01T06:27:41.753Z,51.215984
2022-12-01T06:28:41.691Z,51.216057
2022-12-01T06:29:42.379Z,51.216209
2022-12-01T06:30:42.693Z,51.216045
2022-12-01T06:31:41.685Z,51.215546
2022-12-01T06:32:41.680Z,51.215672
2022-12-01T06:33:41.642Z,51.215736
2022-12-01T06:34:41.656Z,51.215958
2022-12-01T06:35:41.639Z,51.215923
2022-12-01T06:36:41.635Z,51.216110
2022-12-01T06:37:41.627Z,51.216244
2022-12-01T06:38:41.635Z,51.216175
2022-12-01T06:39:41.601Z,51.216175
2022-12-01T06:40:41.624Z,51.215805
2022-12-01T06:41:41.601Z,51.216133
2022-12-01T06:42:41.598Z,51.216293
2022-12-01T06:43:41.590Z,51.216232
2022-12-01T06:44:41.601Z,51.216068
2022-12-01T06:45:41.620Z,51.216156
2022-12-01T06:46:41.569Z,51.216248
2022-12-01T06:47:41.559Z,51.216175
2022-12-01T06:48:41.551Z,51.216316
2022-12-01T06:49:41.547Z,51.216141
2022-12-01T06:50:41.555Z,51.216152
2022-12-01T06:51:41.532Z,51.216141
2022-12-01T06:52:41.531Z,51.216167
2022-12-01T06:53:41.519Z,51.216114
2022-12-01T06:54:41.518Z,51.216110
2022-12-01T06:55:41.511Z,51.216091
2022-12-01T06:56:41.513Z,51.216068
2022-12-01T06:57:41.499Z,51.216194
2022-12-01T06:58:41.498Z,51.216106
2022-12-01T06:59:41.479Z,51.216141
2022-12-01T07:00:45.392Z,51.216148
2022-12-01T07:01:42.556Z,51.216160
2022-12-01T07:02:41.551Z,51.216225
2022-12-01T07:03:41.464Z,51.216114
2022-12-01T07:04:41.459Z,51.216137
2022-12-01T07:05:41.453Z,51.216133
2022-12-01T07:06:41.444Z,51.216049
2022-12-01T07:07:42.525Z,51.216064
2022-12-01T07:08:41.440Z,51.216251
2022-12-01T07:09:41.420Z,51.216194
2022-12-01T07:10:41.395Z,51.216042
2022-12-01T07:11:41.433Z,51.216057
2022-12-01T07:12:41.446Z,51.216251
2022-12-01T07:13:41.421Z,51.216106
2022-12-01T07:14:41.406Z,51.216057
2022-12-01T07:15:41.386Z,51.216137
2022-12-01T07:16:41.421Z,51.216095
2022-12-01T07:17:41.364Z,51.216072
2022-12-01T07:18:41.397Z,51.216072
2022-12-01T07:19:41.354Z,51.216160
2022-12-01T07:20:41.355Z,51.216030
2022-12-01T07:21:41.380Z,51.215946
2022-12-01T07:22:41.350Z,51.216122
2022-12-01T07:23:41.362Z,51.216099
2022-12-01T07:24:41.349Z,51.216148
2022-12-01T07:25:41.318Z,51.216145
2022-12-01T07:26:41.412Z,51.216209
2022-12-01T07:27:41.292Z,51.216137
2022-12-01T07:28:41.302Z,51.216030
2022-12-01T07:29:41.281Z,51.216175
2022-12-01T07:30:41.309Z,51.216240
2022-12-01T07:31:41.292Z,51.216175
2022-12-01T07:32:41.270Z,51.216038
2022-12-01T07:33:41.268Z,51.215916
2022-12-01T07:34:41.256Z,51.215961
2022-12-01T07:35:41.243Z,51.216011
2022-12-01T07:36:41.239Z,51.216106
2022-12-01T07:37:41.229Z,51.216080
2022-12-01T07:38:41.213Z,51.215965
2022-12-01T07:39:41.230Z,51.215984
2022-12-01T07:40:41.222Z,51.216045
2022-12-01T07:41:41.205Z,51.216038
2022-12-01T07:42:41.191Z,51.215961
2022-12-01T07:43:41.196Z,51.216053
2022-12-01T07:44:41.206Z,51.215996
2022-12-01T07:45:41.220Z,51.215973
2022-12-01T07:46:41.214Z,51.216080
2022-12-01T07:47:41.171Z,51.216087
2022-12-01T07:48:41.157Z,51.215797
2022-12-01T07:49:41.258Z,51.215843
2022-12-01T07:50:41.149Z,51.215874
2022-12-01T07:51:41.136Z,51.215969
2022-12-01T07:52:41.148Z,51.216022
2022-12-01T07:53:41.125Z,51.216011
2022-12-01T07:54:41.252Z,51.215923
2022-12-01T07:55:41.126Z,51.216019
2022-12-01T07:56:41.126Z,51.215900
2022-12-01T07:57:41.093Z,51.215836
2022-12-01T07:58:41.084Z,51.216080
2022-12-01T07:59:41.100Z,51.216015
2022-12-01T08:00:41.065Z,51.216122
2022-12-01T08:01:44.426Z,51.216145
2022-12-01T08:02:42.131Z,51.216007
2022-12-01T08:03:41.073Z,51.215958
2022-12-01T08:04:41.054Z,51.215927
2022-12-01T08:05:41.044Z,51.215984
2022-12-01T08:06:41.037Z,51.215893
2022-12-01T08:07:41.146Z,51.215904
2022-12-01T08:08:41.062Z,51.215950
2022-12-01T08:09:41.117Z,51.215984
2022-12-01T08:10:41.005Z,51.216064
2022-12-01T08:11:41.000Z,51.216019
2022-12-01T08:12:41.996Z,51.216068
2022-12-01T08:13:41.008Z,51.216106
2022-12-01T08:14:41.090Z,51.216099
2022-12-01T08:15:41.053Z,51.216042
2022-12-01T08:16:40.969Z,51.216003
2022-12-01T08:17:40.961Z,51.216133
2022-12-01T08:18:40.948Z,51.216000
2022-12-01T08:19:40.976Z,51.215900
2022-12-01T08:20:40.992Z,51.215675
2022-12-01T08:21:40.941Z,51.215626
2022-12-01T08:22:40.936Z,51.215984
2022-12-01T08:23:40.932Z,51.216007
2022-12-01T08:24:40.920Z,51.216003
2022-12-01T08:25:40.901Z,51.215904
2022-12-01T08:26:40.933Z,51.215927
2022-12-01T08:27:40.908Z,51.215935
2022-12-01T08:28:40.896Z,51.215916
2022-12-01T08:29:40.888Z,51.215889
2022-12-01T08:30:40.992Z,51.215878
2022-12-01T08:31:41.002Z,51.215996
2022-12-01T08:32:40.886Z,51.216034
2022-12-01T08:33:40.866Z,51.216103
2022-12-01T08:34:40.850Z,51.216099
2022-12-01T08:35:40.850Z,51.215973
2022-12-01T08:36:40.853Z,51.216141
2022-12-01T08:37:40.842Z,51.216305
2022-12-01T08:38:40.826Z,51.216171
2022-12-01T08:39:40.829Z,51.216103
2022-12-01T08:40:40.905Z,51.216110
2022-12-01T08:41:40.806Z,51.216316
2022-12-01T08:42:41.012Z,51.216248
2022-12-01T08:43:57.379Z,51.216072
2022-12-01T08:44:42.857Z,51.215942
2022-12-01T08:45:40.784Z,51.216190
2022-12-01T08:46:40.833Z,51.216042
2022-12-01T08:47:40.793Z,51.216129
2022-12-01T08:48:40.767Z,51.216084
2022-12-01T08:49:40.760Z,51.216080
2022-12-01T08:50:40.772Z,51.216145
2022-12-01T08:51:40.747Z,51.216160
2022-12-01T08:52:40.748Z,51.216076
2022-12-01T08:53:45.303Z,51.216198
2022-12-01T08:54:42.741Z,51.215664
2022-12-01T08:55:40.732Z,51.215519
2022-12-01T08:56:40.712Z,51.215855
2022-12-01T08:57:40.709Z,51.216095
2022-12-01T08:58:40.692Z,51.215977
2022-12-01T08:59:40.712Z,51.216125
2022-12-01T09:00:40.685Z,51.216076
2022-12-01T09:01:40.707Z,51.215950
2022-12-01T09:02:40.706Z,51.215721
2022-12-01T09:03:40.668Z,51.216129
2022-12-01T09:04:40.658Z,51.216137
2022-12-01T09:05:40.660Z,51.216145
2022-12-01T09:06:40.698Z,51.216175
2022-12-01T09:07:40.703Z,51.216137
2022-12-01T09:08:40.625Z,51.216099
2022-12-01T09:09:40.620Z,51.216106
2022-12-01T09:10:40.648Z,51.216095
2022-12-01T09:11:40.621Z,51.216095
2022-12-01T09:12:40.604Z,51.216049
2022-12-01T09:13:40.596Z,51.216137
2022-12-01T09:14:40.593Z,51.216194
2022-12-01T09:15:40.593Z,51.215843
2022-12-01T09:16:40.645Z,51.215992
2022-12-01T09:17:40.567Z,51.215919
2022-12-01T09:18:40.564Z,51.215794
2022-12-01T09:19:40.560Z,51.216045
2022-12-01T09:20:40.546Z,51.215950
2022-12-01T09:21:40.549Z,51.216114
2022-12-01T09:22:40.529Z,51.216049
2022-12-01T09:23:40.551Z,51.216045
2022-12-01T09:24:40.526Z,51.215996
2022-12-01T09:25:40.519Z,51.216145
2022-12-01T09:26:40.531Z,51.216064
2022-12-01T09:27:40.518Z,51.215984
2022-12-01T09:28:40.511Z,51.215923
2022-12-01T09:29:40.493Z,51.216022
2022-12-01T09:30:40.493Z,51.216011
2022-12-01T09:31:40.574Z,51.215988
2022-12-01T09:32:40.490Z,51.216061
2022-12-01T09:33:40.470Z,51.215897
2022-12-01T09:34:40.463Z,51.216003
2022-12-01T09:35:40.451Z,51.216084
2022-12-01T09:36:40.450Z,51.216095
2022-12-01T09:37:40.481Z,51.215992
2022-12-01T09:38:40.438Z,51.215942
2022-12-01T09:39:40.454Z,51.215988
2022-12-01T09:40:40.429Z,51.215973
2022-12-01T09:41:40.418Z,51.215923
2022-12-01T09:42:40.412Z,51.215900
2022-12-01T09:43:40.413Z,51.215870
2022-12-01T09:44:40.394Z,51.215801
2022-12-01T09:45:40.385Z,51.215820
2022-12-01T09:46:40.454Z,51.215912
2022-12-01T09:47:40.401Z,51.215958
2022-12-01T09:48:40.370Z,51.215904
2022-12-01T09:49:40.373Z,51.215958
2022-12-01T09:50:40.354Z,51.215973
2022-12-01T09:51:40.355Z,51.215923
2022-12-01T09:52:40.345Z,51.215939
2022-12-01T09:53:40.331Z,51.215958
2022-12-01T09:54:40.337Z,51.216118
2022-12-01T09:55:40.379Z,51.216179
2022-12-01T09:56:40.314Z,51.216137
2022-12-01T09:57:40.297Z,51.216057
2022-12-01T09:58:40.330Z,51.215969
2022-12-01T09:59:40.307Z,51.215836
2022-12-01T10:00:40.352Z,51.215801
2022-12-01T10:01:41.352Z,51.215893
2022-12-01T10:02:40.289Z,51.216015
2022-12-01T10:03:40.291Z,51.216007
2022-12-01T10:04:40.274Z,51.215973
2022-12-01T10:05:56.620Z,51.215992
2022-12-01T10:06:42.312Z,51.216061
2022-12-01T10:07:40.348Z,51.216076
2022-12-01T10:08:40.246Z,51.216080
2022-12-01T10:09:40.243Z,51.216049
2022-12-01T10:10:40.229Z,51.216045
2022-12-01T10:11:40.226Z,51.216103
2022-12-01T10:12:40.217Z,51.215965
2022-12-01T10:13:42.742Z,51.215992
2022-12-01T10:14:40.206Z,51.216099
2022-12-01T10:15:40.203Z,51.216103
2022-12-01T10:16:40.246Z,51.216118
2022-12-01T10:17:40.181Z,51.216137
2022-12-01T10:18:40.170Z,51.215961
2022-12-01T10:19:40.171Z,51.215939
2022-12-01T10:20:40.186Z,51.216015
2022-12-01T10:21:40.151Z,51.215977
2022-12-01T10:22:40.179Z,51.216030
2022-12-01T10:23:40.161Z,51.215996
2022-12-01T10:24:40.130Z,51.216087
2022-12-01T10:25:40.125Z,51.216061
2022-12-01T10:26:40.120Z,51.216045
2022-12-01T10:27:40.110Z,51.216007
2022-12-01T10:28:40.107Z,51.216042
2022-12-01T10:29:43.745Z,51.216106
2022-12-01T10:30:41.114Z,51.216061
2022-12-01T10:31:40.129Z,51.216042
2022-12-01T10:32:40.070Z,51.216011
2022-12-01T10:33:40.066Z,51.216084
2022-12-01T10:34:40.058Z,51.216045
2022-12-01T10:35:40.057Z,51.216061
2022-12-01T10:36:40.071Z,51.216022
2022-12-01T10:37:40.085Z,51.216084
2022-12-01T10:38:40.041Z,51.216091
2022-12-01T10:39:40.032Z,51.215992
2022-12-01T10:40:40.006Z,51.215931
2022-12-01T10:41:40.039Z,51.216003
2022-12-01T10:42:40.004Z,51.216087
2022-12-01T10:43:40.024Z,51.216061
2022-12-01T10:44:39.998Z,51.216042
2022-12-01T10:45:40.103Z,51.216091
2022-12-01T10:46:39.987Z,51.216026
2022-12-01T10:47:39.971Z,51.216148
2022-12-01T10:48:39.966Z,51.216125
2022-12-01T10:49:39.962Z,51.216133
2022-12-01T10:50:39.958Z,51.216072
2022-12-01T10:51:39.949Z,51.216110
2022-12-01T10:52:39.945Z,51.216122
2022-12-01T10:53:39.935Z,51.216045
2022-12-01T10:54:39.952Z,51.216045
2022-12-01T10:55:43.471Z,51.216122
2022-12-01T10:56:40.920Z,51.216022
2022-12-01T10:57:39.915Z,51.216076
2022-12-01T10:58:39.906Z,51.216095
2022-12-01T10:59:39.939Z,51.216129
2022-12-01T11:01:42.002Z,51.215996
2022-12-01T11:02:40.027Z,51.216076
2022-12-01T11:03:39.901Z,51.216084
2022-12-01T11:04:39.894Z,51.216000
2022-12-01T11:05:39.851Z,51.215893
2022-12-01T11:06:39.862Z,51.215702
2022-12-01T11:07:39.873Z,51.215736
2022-12-01T11:08:40.838Z,51.215775
2022-12-01T11:09:39.843Z,51.215828
2022-12-01T11:10:39.846Z,51.215885
2022-12-01T11:11:39.811Z,51.215942
2022-12-01T11:12:39.813Z,51.216026
2022-12-01T11:13:39.820Z,51.215916
2022-12-01T11:14:39.807Z,51.215996
2022-12-01T11:15:39.821Z,51.216022
2022-12-01T11:16:39.914Z,51.216118
2022-12-01T11:17:39.790Z,51.216026
2022-12-01T11:18:39.826Z,51.216019
2022-12-01T11:19:39.940Z,51.216110
2022-12-01T11:20:39.804Z,51.216141
2022-12-01T11:21:39.770Z,51.216125
2022-12-01T11:22:39.772Z,51.216152
2022-12-01T11:23:39.736Z,51.216114
2022-12-01T11:24:39.745Z,51.216064
2022-12-01T11:25:39.734Z,51.216198